Time;durP1;ratioP1;P1;durP2;ratioP2;P2;SDS_P1;SDS_P2;PMS_P1;PMS_P2;Temp;Humidity;BMP_temperature;BMP_pressure;BME280_temperature;BME280_humidity;BME280_pressure;Samples;Min_cycle;Max_cycle;Signal;HPM_P1;HPM_P2
2022/01/22 00:01:46;;;;;;;6.82;5.88;;;21.50;60.70;;;;;;6216792;28;90321;-70
2022/01/22 00:04:49;;;;;;;6.43;5.72;;;21.50;60.80;;;;;;6233181;28;88386;-69
2022/01/22 00:07:52;;;;;;;6.20;5.60;;;21.40;60.80;;;;;;6231109;28;89087;-70
2022/01/22 00:10:54;;;;;;;5.57;4.82;;;21.40;60.90;;;;;;6230944;28;89306;-69
2022/01/22 00:17:15;;;;;;;5.40;4.90;;;21.30;60.80;;;;;;6231845;28;87237;-70
2022/01/22 00:20:22;;;;;;;5.93;5.25;;;21.30;60.90;;;;;;6228401;28;89046;-69
2022/01/22 00:23:26;;;;;;;6.38;5.00;;;21.40;61.00;;;;;;6232675;28;88334;-69
2022/01/22 00:26:28;;;;;;;5.95;5.03;;;21.30;60.90;;;;;;6217545;28;89032;-70
2022/01/22 00:29:30;;;;;;;5.88;5.28;;;21.30;61.00;;;;;;6233719;28;89099;-70
2022/01/22 00:32:32;;;;;;;5.43;4.88;;;21.30;61.00;;;;;;6220979;28;89784;-69
2022/01/22 00:35:36;;;;;;;5.15;4.65;;;21.30;60.90;;;;;;6228918;28;89052;-70
2022/01/22 00:38:38;;;;;;;5.53;4.82;;;21.30;61.20;;;;;;6232341;28;89067;-69
2022/01/22 00:41:41;;;;;;;5.07;4.57;;;21.20;60.90;;;;;;6230446;28;89053;-70
2022/01/22 00:44:43;;;;;;;4.88;4.40;;;21.20;60.90;;;;;;6233815;28;89059;-69
2022/01/22 00:47:46;;;;;;;5.30;4.78;;;21.20;60.90;;;;;;6226243;28;89541;-69
2022/01/22 00:50:53;;;;;;;4.90;4.40;;;21.20;61.10;;;;;;6210424;28;89495;-70
2022/01/22 00:53:55;;;;;;;5.22;4.40;;;21.20;61.10;;;;;;6230484;28;88428;-70
2022/01/22 00:56:58;;;;;;;5.40;4.88;;;21.10;61.00;;;;;;6232990;28;89032;-68
2022/01/22 01:00:00;;;;;;;5.03;4.43;;;21.10;61.10;;;;;;6230368;28;87984;-70
2022/01/22 01:03:02;;;;;;;4.57;4.18;;;21.10;61.00;;;;;;6216211;28;89864;-69
2022/01/22 01:06:06;;;;;;;4.43;4.03;;;21.10;61.10;;;;;;6230406;28;89073;-69
2022/01/22 01:09:10;;;;;;;4.82;4.32;;;21.10;61.10;;;;;;6227338;28;89314;-71
2022/01/22 01:12:12;;;;;;;4.85;4.10;;;21.10;61.20;;;;;;6223167;28;89240;-70
2022/01/22 01:15:25;;;;;;;4.60;4.05;;;21.10;61.20;;;;;;6221673;28;88899;-67
2022/01/22 01:35:17;;;;;;;4.50;4.10;;;21.10;61.10;;;;;;6229938;28;88264;-69
2022/01/22 01:38:22;;;;;;;5.32;4.30;;;21.00;61.10;;;;;;6230153;28;87799;-70
2022/01/22 01:41:50;;;;;;;4.53;4.05;;;21.00;61.10;;;;;;6230574;28;87961;-70
2022/01/22 01:44:52;;;;;;;5.13;4.60;;;20.90;61.10;;;;;;6229976;28;89013;-69
2022/01/22 01:47:55;;;;;;;5.03;4.45;;;21.00;61.20;;;;;;6229069;28;88030;-70
2022/01/22 01:50:59;;;;;;;4.97;4.47;;;21.00;61.20;;;;;;6225210;28;89433;-70
2022/01/22 01:54:08;;;;;;;5.22;4.72;;;20.90;61.20;;;;;;6229857;28;89366;-68
2022/01/22 01:57:38;;;;;;;5.00;4.50;;;20.90;61.30;;;;;;6229518;28;88413;-69
2022/01/22 02:00:40;;;;;;;4.50;4.10;;;20.90;61.30;;;;;;6233801;28;88102;-71
2022/01/22 02:03:42;;;;;;;5.15;4.65;;;20.90;61.40;;;;;;6222343;28;88992;-69
2022/01/22 02:06:44;;;;;;;5.30;4.80;;;20.90;61.40;;;;;;6224942;28;88827;-70
2022/01/22 02:09:48;;;;;;;5.13;4.63;;;20.90;61.40;;;;;;6232129;28;89040;-70
2022/01/22 02:26:24;;;;;;;5.05;4.60;;;20.90;61.30;;;;;;6234292;28;87282;-70
2022/01/22 02:29:26;;;;;;;4.53;4.13;;;20.90;61.30;;;;;;6232126;28;88597;-70
2022/01/22 02:35:52;;;;;;;4.57;4.18;;;20.80;61.40;;;;;;6231433;28;89808;-69
2022/01/22 02:39:03;;;;;;;4.53;4.13;;;20.80;61.40;;;;;;6230272;28;90045;-70
2022/01/22 02:42:05;;;;;;;4.88;4.38;;;20.80;61.40;;;;;;6224005;28;88226;-70
2022/01/22 02:45:11;;;;;;;5.10;4.60;;;20.70;61.40;;;;;;6232906;28;89124;-70
2022/01/22 02:48:14;;;;;;;5.25;4.75;;;20.70;61.40;;;;;;6233061;28;89225;-69
2022/01/22 02:51:16;;;;;;;4.90;4.40;;;20.70;61.40;;;;;;6221336;28;89620;-70
2022/01/22 02:54:19;;;;;;;5.80;4.85;;;20.70;61.50;;;;;;6233719;28;89523;-70
2022/01/22 02:57:21;;;;;;;4.60;4.10;;;20.70;61.40;;;;;;6232487;28;89104;-70
2022/01/22 03:00:24;;;;;;;4.97;4.47;;;20.70;61.50;;;;;;6233162;28;88464;-69
2022/01/22 03:03:26;;;;;;;4.30;3.90;;;20.70;61.50;;;;;;6224589;28;89832;-69
2022/01/22 03:06:28;;;;;;;4.50;4.07;;;20.70;61.60;;;;;;6231411;28;89010;-69
2022/01/22 03:09:38;;;;;;;4.50;4.00;;;20.70;61.60;;;;;;6233892;28;90029;-70
2022/01/22 03:16:16;;;;;;;4.72;4.22;;;20.70;61.60;;;;;;6167465;28;87628;-70
2022/01/22 03:19:59;;;;;;;4.43;4.03;;;20.70;61.50;;;;;;6232147;28;89111;-70
2022/01/22 03:23:08;;;;;;;4.85;4.35;;;20.70;61.50;;;;;;6233281;28;89084;-69
2022/01/22 03:29:34;;;;;;;4.80;4.18;;;20.70;61.60;;;;;;6229793;28;87306;-70
2022/01/22 03:32:41;;;;;;;4.60;4.20;;;20.60;61.60;;;;;;6231484;28;88017;-70
2022/01/22 03:35:45;;;;;;;4.05;3.65;;;20.60;61.50;;;;;;6229240;28;89437;-70
2022/01/22 03:38:48;;;;;;;4.15;3.75;;;20.60;61.60;;;;;;6229099;28;89215;-70
2022/01/22 03:41:52;;;;;;;4.20;3.80;;;20.60;61.60;;;;;;6230760;28;90296;-71
2022/01/22 03:44:54;;;;;;;4.32;3.90;;;20.50;61.50;;;;;;6232878;28;89106;-70
2022/01/22 03:47:56;;;;;;;4.25;3.85;;;20.60;61.70;;;;;;6231992;28;89175;-70
2022/01/22 03:50:58;;;;;;;4.32;3.83;;;20.50;61.60;;;;;;6219701;28;89391;-70
2022/01/22 03:54:00;;;;;;;4.20;3.80;;;20.50;61.60;;;;;;6230244;28;89091;-70
2022/01/22 03:57:04;;;;;;;4.20;3.40;;;20.50;61.60;;;;;;6209595;28;89051;-70
2022/01/22 04:00:08;;;;;;;4.05;3.65;;;20.50;61.60;;;;;;6220953;28;89101;-70
2022/01/22 04:03:29;;;;;;;4.35;3.95;;;20.50;61.70;;;;;;6215363;28;88715;-70
2022/01/22 04:09:49;;;;;;;3.70;3.33;;;20.50;61.60;;;;;;6221936;28;88840;-69
2022/01/22 04:12:58;;;;;;;3.83;3.45;;;20.50;61.60;;;;;;6212399;28;90124;-70
2022/01/22 04:16:00;;;;;;;3.78;3.45;;;20.50;61.40;;;;;;6230649;28;89580;-70
2022/01/22 04:25:46;;;;;;;3.45;3.15;;;20.60;61.10;;;;;;6230939;28;87309;-70
2022/01/22 04:28:50;;;;;;;3.38;3.08;;;20.60;61.10;;;;;;6231270;28;89155;-70
2022/01/22 04:31:52;;;;;;;3.20;2.90;;;20.60;61.10;;;;;;6231031;28;88367;-70
2022/01/22 04:34:54;;;;;;;3.55;3.20;;;20.60;61.00;;;;;;6233580;28;88420;-70
2022/01/22 04:37:56;;;;;;;3.50;3.08;;;20.60;60.90;;;;;;6231991;28;88828;-70
2022/01/22 04:40:59;;;;;;;3.30;3.00;;;20.60;60.90;;;;;;6217892;28;87093;-70
2022/01/22 04:44:04;;;;;;;3.00;2.75;;;20.70;60.90;;;;;;6231345;28;90091;-70
2022/01/22 04:47:19;;;;;;;3.50;3.20;;;20.60;60.70;;;;;;6223861;28;89185;-69
2022/01/22 04:57:00;;;;;;;3.20;2.90;;;20.80;60.60;;;;;;6223587;28;87249;-70
2022/01/22 05:00:06;;;;;;;3.22;2.80;;;20.70;60.50;;;;;;6227836;28;89045;-70
2022/01/22 05:03:09;;;;;;;2.65;2.45;;;20.80;60.50;;;;;;6232604;28;89056;-70
2022/01/22 05:06:11;;;;;;;3.08;2.78;;;20.80;60.50;;;;;;6218708;28;88539;-70
2022/01/22 05:09:14;;;;;;;2.60;2.35;;;20.80;60.40;;;;;;6212865;28;89672;-70
2022/01/22 05:12:16;;;;;;;2.70;2.50;;;20.90;60.40;;;;;;6215153;28;89047;-70
2022/01/22 05:15:20;;;;;;;2.90;2.63;;;20.90;60.40;;;;;;6230386;28;90009;-70
2022/01/22 05:18:21;;;;;;;2.75;2.50;;;20.90;60.40;;;;;;6230220;28;89102;-70
2022/01/22 05:21:25;;;;;;;2.50;2.30;;;20.90;60.40;;;;;;6232221;28;89378;-70
2022/01/22 05:24:30;;;;;;;2.72;2.53;;;20.90;60.40;;;;;;6229428;28;89342;-70
2022/01/22 05:27:50;;;;;;;2.60;2.40;;;20.90;60.40;;;;;;6229685;28;89345;-70
2022/01/22 05:31:05;;;;;;;2.25;2.05;;;21.00;60.40;;;;;;6230056;28;88989;-69
2022/01/22 05:37:28;;;;;;;2.50;2.30;;;20.90;60.40;;;;;;6232223;28;88017;-70
2022/01/22 05:40:31;;;;;;;2.60;2.40;;;20.90;60.40;;;;;;6230500;28;89043;-69
2022/01/22 05:43:33;;;;;;;2.45;2.25;;;20.90;60.40;;;;;;6222037;28;89002;-69
2022/01/22 05:46:36;;;;;;;2.72;2.38;;;20.90;60.50;;;;;;6223489;28;90163;-69
2022/01/22 05:49:41;;;;;;;2.30;2.10;;;20.90;60.50;;;;;;6223439;28;89163;-69
2022/01/22 05:52:54;;;;;;;2.40;2.20;;;20.90;60.50;;;;;;6224986;28;89185;-70
2022/01/22 06:02:36;;;;;;;2.45;2.20;;;20.90;60.70;;;;;;6234955;28;87771;-70
2022/01/22 06:05:38;;;;;;;2.45;2.20;;;20.90;60.70;;;;;;6236081;28;89428;-69
2022/01/22 06:08:46;;;;;;;2.30;2.10;;;20.80;60.60;;;;;;6222415;28;88328;-70
2022/01/22 06:11:57;;;;;;;3.47;2.17;;;20.90;60.70;;;;;;6223229;28;89119;-70
2022/01/22 06:14:59;;;;;;;2.42;2.05;;;20.80;60.70;;;;;;6220742;28;89174;-70
2022/01/22 06:18:02;;;;;;;1.92;1.83;;;20.80;60.60;;;;;;6208768;28;89989;-69
2022/01/22 06:21:05;;;;;;;1.90;1.80;;;20.80;60.70;;;;;;6231572;28;89098;-69
2022/01/22 06:24:08;;;;;;;2.20;2.00;;;20.90;60.70;;;;;;6212960;28;89011;-71
2022/01/22 06:27:10;;;;;;;2.30;2.00;;;20.80;60.70;;;;;;6228872;28;88277;-70
2022/01/22 06:30:12;;;;;;;2.10;1.90;;;20.80;60.70;;;;;;6221087;28;89114;-70
2022/01/22 06:33:16;;;;;;;2.30;2.10;;;20.80;60.70;;;;;;6231996;28;89077;-70
2022/01/22 06:36:18;;;;;;;1.88;1.67;;;20.80;60.70;;;;;;6226322;28;89261;-70
2022/01/22 06:39:21;;;;;;;3.17;2.00;;;20.80;60.70;;;;;;6231054;28;88592;-70
2022/01/22 06:42:22;;;;;;;2.15;1.95;;;20.90;60.70;;;;;;6221873;28;89046;-70
2022/01/22 06:45:24;;;;;;;1.95;1.80;;;20.80;60.60;;;;;;6233485;28;89050;-70
2022/01/22 06:48:27;;;;;;;2.20;2.00;;;20.90;60.70;;;;;;6219230;28;90059;-70
2022/01/22 06:51:30;;;;;;;1.92;1.83;;;20.90;60.60;;;;;;6222549;28;88711;-71
2022/01/22 06:54:32;;;;;;;2.20;2.00;;;20.90;60.50;;;;;;6234799;28;89105;-69
2022/01/22 06:57:35;;;;;;;2.00;1.83;;;20.90;60.50;;;;;;6232346;28;89037;-70
2022/01/22 07:00:37;;;;;;;2.10;1.90;;;20.90;60.50;;;;;;6235641;28;89120;-70
2022/01/22 07:03:40;;;;;;;2.20;2.00;;;21.00;60.50;;;;;;6233608;28;88965;-69
2022/01/22 07:06:42;;;;;;;2.78;1.90;;;21.00;60.50;;;;;;6232829;28;88075;-68
2022/01/22 07:09:47;;;;;;;2.00;1.80;;;21.00;60.40;;;;;;6233273;28;88364;-70
2022/01/22 07:12:49;;;;;;;1.80;1.70;;;21.00;60.40;;;;;;6225822;28;89837;-69
2022/01/22 07:15:51;;;;;;;2.55;1.80;;;21.00;60.40;;;;;;6225511;28;89042;-69
2022/01/22 07:19:00;;;;;;;2.13;1.92;;;21.10;60.40;;;;;;6233091;28;90016;-70
2022/01/22 07:22:08;;;;;;;2.13;1.90;;;21.00;60.30;;;;;;6232914;28;89375;-69
2022/01/22 07:25:10;;;;;;;2.03;1.80;;;21.10;60.20;;;;;;6232085;28;89153;-70
2022/01/22 07:28:13;;;;;;;1.90;1.70;;;21.10;60.20;;;;;;6218628;28;87945;-69
2022/01/22 07:31:16;;;;;;;2.17;1.98;;;21.10;60.10;;;;;;6234108;28;89050;-69
2022/01/22 07:34:19;;;;;;;2.00;1.80;;;21.20;60.10;;;;;;6231818;28;89109;-70
2022/01/22 07:37:22;;;;;;;1.90;1.80;;;21.20;60.00;;;;;;6231026;28;89282;-69
2022/01/22 07:40:23;;;;;;;1.83;1.70;;;21.20;60.00;;;;;;6228337;28;87570;-70
2022/01/22 07:43:26;;;;;;;1.90;1.67;;;21.20;60.00;;;;;;6222229;28;88979;-69
2022/01/22 07:46:28;;;;;;;2.03;1.83;;;21.30;60.00;;;;;;6220270;28;89488;-69
2022/01/22 07:49:31;;;;;;;1.90;1.80;;;21.30;60.00;;;;;;6219675;28;89998;-69
2022/01/22 07:52:33;;;;;;;1.85;1.75;;;21.20;59.90;;;;;;6220346;28;89165;-69
2022/01/22 07:55:35;;;;;;;1.70;1.60;;;21.30;59.90;;;;;;6221754;28;89483;-70
2022/01/22 07:58:38;;;;;;;1.80;1.70;;;21.30;59.90;;;;;;6229148;28;89207;-70
2022/01/22 08:01:39;;;;;;;1.95;1.70;;;21.40;60.00;;;;;;6217979;28;88045;-69
2022/01/22 08:04:43;;;;;;;1.70;1.60;;;21.40;60.00;;;;;;6231869;28;89062;-69
2022/01/22 08:07:45;;;;;;;1.80;1.70;;;21.40;60.00;;;;;;6227705;28;89178;-70
2022/01/22 08:10:47;;;;;;;2.05;1.85;;;21.40;60.00;;;;;;6220305;28;88343;-70
2022/01/22 08:13:49;;;;;;;2.20;2.00;;;21.40;60.00;;;;;;6219216;28;89154;-70
2022/01/22 08:16:51;;;;;;;1.65;1.55;;;21.40;60.00;;;;;;6208056;28;89137;-70
2022/01/22 08:19:54;;;;;;;1.98;1.77;;;21.40;60.00;;;;;;6226321;28;89999;-70
2022/01/22 08:22:56;;;;;;;1.90;1.70;;;21.40;60.00;;;;;;6233597;28;89140;-70
2022/01/22 08:25:58;;;;;;;1.60;1.50;;;21.40;59.90;;;;;;6209609;28;89319;-70
2022/01/22 08:29:02;;;;;;;1.60;1.50;;;21.50;60.00;;;;;;6228425;28;89035;-69
2022/01/22 08:32:10;;;;;;;1.60;1.50;;;21.50;60.00;;;;;;6231364;28;89410;-70
2022/01/22 08:38:35;;;;;;;1.75;1.65;;;21.50;59.90;;;;;;6230152;28;87259;-70
2022/01/22 08:41:37;;;;;;;1.67;1.58;;;21.50;59.80;;;;;;6232510;28;88730;-70
2022/01/22 08:44:40;;;;;;;1.60;1.50;;;21.50;59.80;;;;;;6232994;28;89006;-69
2022/01/22 08:47:42;;;;;;;1.58;1.48;;;21.50;59.90;;;;;;6216927;28;89074;-69
2022/01/22 08:50:46;;;;;;;1.85;1.70;;;21.50;59.80;;;;;;6217833;28;90322;-69
2022/01/22 08:53:48;;;;;;;1.60;1.50;;;21.60;59.80;;;;;;6230917;28;89219;-69
2022/01/22 08:56:50;;;;;;;1.58;1.48;;;21.60;59.90;;;;;;6231670;28;89074;-68
2022/01/22 08:59:52;;;;;;;1.90;1.60;;;21.60;59.80;;;;;;6230678;28;89081;-70
2022/01/22 09:02:54;;;;;;;1.60;1.50;;;21.60;59.80;;;;;;6217340;28;87981;-69
2022/01/22 09:05:59;;;;;;;1.70;1.60;;;21.60;59.80;;;;;;6218437;28;89172;-70
2022/01/22 09:09:09;;;;;;;1.73;1.63;;;21.60;59.80;;;;;;6229825;28;89520;-69
2022/01/22 09:12:12;;;;;;;1.75;1.60;;;21.60;59.80;;;;;;6230442;28;88392;-70
2022/01/22 09:15:14;;;;;;;1.70;1.55;;;21.60;59.80;;;;;;6217548;28;89217;-70
2022/01/22 09:18:17;;;;;;;1.60;1.50;;;21.60;59.80;;;;;;6218009;28;87973;-70
2022/01/22 09:21:20;;;;;;;1.40;1.30;;;21.70;59.90;;;;;;6230280;28;90253;-69
2022/01/22 09:24:22;;;;;;;1.50;1.40;;;21.60;59.80;;;;;;6230005;28;89024;-70
2022/01/22 09:27:24;;;;;;;1.60;1.50;;;21.60;59.70;;;;;;6216979;28;87882;-69
2022/01/22 09:30:27;;;;;;;1.75;1.40;;;21.60;59.70;;;;;;6217195;28;89018;-70
2022/01/22 09:33:29;;;;;;;1.58;1.48;;;21.70;59.70;;;;;;6218820;28;87952;-70
2022/01/22 09:36:34;;;;;;;1.48;1.38;;;21.70;59.80;;;;;;6230932;28;89064;-69
2022/01/22 09:39:36;;;;;;;1.50;1.40;;;21.70;59.70;;;;;;6218329;28;89194;-70
2022/01/22 09:42:39;;;;;;;1.40;1.30;;;21.70;59.70;;;;;;6205562;28;88283;-69
2022/01/22 09:45:42;;;;;;;1.50;1.40;;;21.70;59.70;;;;;;6217071;28;87988;-69
2022/01/22 09:48:46;;;;;;;1.48;1.38;;;21.70;59.70;;;;;;6225485;28;89060;-70
2022/01/22 09:51:50;;;;;;;1.45;1.35;;;21.70;59.70;;;;;;6210177;28;88871;-69
2022/01/22 09:54:52;;;;;;;1.42;1.27;;;21.70;59.70;;;;;;6216023;28;89040;-69
2022/01/22 09:57:56;;;;;;;1.85;1.40;;;21.70;59.70;;;;;;6226480;28;89289;-70
2022/01/22 10:01:22;;;;;;;1.52;1.42;;;21.70;59.70;;;;;;6220338;28;89283;-68
2022/01/22 10:04:36;;;;;;;1.30;1.20;;;21.70;59.70;;;;;;6221007;28;89088;-69
2022/01/22 10:07:39;;;;;;;1.50;1.40;;;21.70;59.70;;;;;;6217107;28;87984;-69
2022/01/22 10:10:41;;;;;;;1.27;1.17;;;21.70;59.80;;;;;;6217057;28;89445;-70
2022/01/22 10:13:45;;;;;;;1.60;1.50;;;21.70;59.80;;;;;;6230773;28;88292;-69
2022/01/22 10:16:49;;;;;;;1.50;1.40;;;21.70;59.80;;;;;;6230130;28;89289;-69
2022/01/22 10:19:51;;;;;;;1.48;1.38;;;21.70;59.80;;;;;;6231362;28;89507;-69
2022/01/22 10:23:00;;;;;;;1.35;1.25;;;21.70;59.80;;;;;;6231948;28;88899;-70
2022/01/22 10:26:03;;;;;;;1.50;1.40;;;21.70;59.80;;;;;;6221569;28;89652;-69
2022/01/22 10:29:10;;;;;;;1.40;1.30;;;21.70;59.80;;;;;;6232575;28;89132;-68
2022/01/22 10:32:18;;;;;;;1.40;1.30;;;21.70;59.80;;;;;;6220250;28;89086;-70
2022/01/22 10:35:23;;;;;;;1.33;1.23;;;21.70;59.90;;;;;;6234373;28;89113;-69
2022/01/22 10:38:38;;;;;;;1.45;1.35;;;21.70;59.90;;;;;;6232718;28;89072;-69
2022/01/22 10:41:41;;;;;;;1.52;1.42;;;21.70;59.80;;;;;;6232162;28;89056;-69
2022/01/22 10:44:47;;;;;;;1.30;1.20;;;21.70;59.80;;;;;;6227145;28;88453;-70
2022/01/22 10:47:50;;;;;;;1.50;1.38;;;21.80;59.80;;;;;;6234031;28;88792;-68
2022/01/22 10:51:02;;;;;;;1.30;1.20;;;21.70;59.80;;;;;;6231205;28;89470;-69
2022/01/22 10:54:11;;;;;;;1.30;1.20;;;21.70;59.70;;;;;;6233793;28;90041;-70
2022/01/22 10:57:15;;;;;;;1.40;1.30;;;21.70;59.70;;;;;;6232274;28;89040;-69
2022/01/22 11:00:21;;;;;;;1.35;1.25;;;21.80;59.80;;;;;;6233076;28;89081;-69
2022/01/22 11:03:25;;;;;;;1.50;1.40;;;21.80;59.70;;;;;;6234198;28;88018;-68
2022/01/22 11:06:28;;;;;;;1.73;1.33;;;21.80;59.70;;;;;;6232864;28;89095;-70
2022/01/22 11:09:32;;;;;;;1.55;1.45;;;21.80;59.70;;;;;;6235087;28;89035;-69
2022/01/22 11:12:34;;;;;;;1.70;1.20;;;21.80;59.70;;;;;;6226647;28;89112;-69
2022/01/22 11:15:37;;;;;;;1.63;1.30;;;21.80;59.70;;;;;;6226015;28;88573;-69
2022/01/22 11:18:43;;;;;;;2.80;1.33;;;21.80;59.70;;;;;;6234031;28;89558;-69
2022/01/22 11:21:48;;;;;;;1.48;1.38;;;21.80;59.70;;;;;;6233984;28;89334;-69
2022/01/22 11:24:53;;;;;;;1.30;1.20;;;21.80;59.60;;;;;;6232738;28;89983;-70
2022/01/22 11:27:56;;;;;;;1.25;1.15;;;21.80;59.70;;;;;;6233634;28;88242;-68
2022/01/22 11:31:00;;;;;;;1.48;1.38;;;21.90;59.70;;;;;;6230927;28;87975;-68
2022/01/22 11:34:05;;;;;;;1.20;1.10;;;21.90;59.70;;;;;;6223306;28;88982;-69
2022/01/22 11:37:13;;;;;;;1.52;1.20;;;21.90;59.80;;;;;;6223376;28;89092;-70
2022/01/22 11:40:19;;;;;;;1.33;1.20;;;21.90;59.70;;;;;;6219930;28;88757;-69
2022/01/22 11:43:33;;;;;;;1.35;1.25;;;21.80;59.70;;;;;;6232047;28;89105;-69
2022/01/22 11:46:39;;;;;;;1.40;1.30;;;21.90;59.80;;;;;;6229400;28;88573;-70
2022/01/22 11:50:03;;;;;;;1.30;1.20;;;21.90;59.70;;;;;;6220226;28;89147;-70
2022/01/22 11:53:26;;;;;;;1.30;1.20;;;21.90;59.70;;;;;;6223559;28;89151;-70
2022/01/22 11:56:32;;;;;;;1.25;1.15;;;21.90;59.70;;;;;;6231160;28;90044;-68
2022/01/22 11:59:34;;;;;;;1.30;1.20;;;21.90;59.70;;;;;;6231094;28;89072;-70
2022/01/22 12:02:36;;;;;;;1.20;1.10;;;21.90;59.80;;;;;;6231606;28;89223;-69
2022/01/22 12:06:09;;;;;;;1.40;1.23;;;21.90;59.80;;;;;;6230006;28;89227;-69
2022/01/22 12:09:15;;;;;;;1.20;1.10;;;21.90;59.70;;;;;;6225622;28;89199;-70
2022/01/22 12:15:54;;;;;;;1.30;1.20;;;21.90;59.80;;;;;;6219269;28;87221;-69
2022/01/22 12:19:00;;;;;;;1.52;1.30;;;21.90;59.80;;;;;;6225723;28;87206;-69
2022/01/22 12:22:02;;;;;;;1.20;1.10;;;21.90;59.80;;;;;;6223355;28;89191;-69
2022/01/22 12:25:44;;;;;;;1.30;1.20;;;21.90;59.80;;;;;;6208366;28;89113;-70
2022/01/22 12:28:49;;;;;;;1.20;1.10;;;22.00;59.90;;;;;;6218551;28;90034;-69
2022/01/22 12:32:25;;;;;;;1.23;1.13;;;21.90;59.80;;;;;;6224061;28;89131;-70
2022/01/22 12:35:35;;;;;;;0.98;0.93;;;21.90;59.80;;;;;;6216155;28;89134;-70
2022/01/22 12:38:46;;;;;;;1.13;1.05;;;21.90;59.80;;;;;;6221992;28;89320;-69
2022/01/22 12:41:56;;;;;;;1.40;1.15;;;22.00;59.90;;;;;;6209015;28;89369;-69
2022/01/22 12:45:02;;;;;;;1.00;1.00;;;22.00;59.90;;;;;;6229089;28;89149;-69
2022/01/22 12:48:05;;;;;;;1.20;1.10;;;22.00;59.90;;;;;;6229634;28;89084;-69
2022/01/22 12:51:09;;;;;;;1.13;1.02;;;22.00;59.90;;;;;;6220086;28;88658;-69
2022/01/22 12:54:11;;;;;;;1.30;1.20;;;22.00;59.90;;;;;;6233032;28;89078;-68
2022/01/22 12:57:15;;;;;;;1.25;1.15;;;22.00;59.90;;;;;;6207732;28;88905;-70
2022/01/22 13:00:20;;;;;;;1.48;1.30;;;22.00;59.90;;;;;;6214638;28;90038;-70
2022/01/22 13:03:33;;;;;;;1.40;1.20;;;22.00;59.90;;;;;;6217679;28;89407;-69
2022/01/22 13:06:38;;;;;;;1.75;1.27;;;22.00;59.90;;;;;;6232476;28;89062;-69
2022/01/22 13:09:47;;;;;;;1.17;1.05;;;22.00;59.80;;;;;;6230497;28;89058;-69
2022/01/22 13:12:50;;;;;;;1.30;1.20;;;22.00;59.90;;;;;;6230130;28;89030;-69
2022/01/22 13:16:03;;;;;;;1.10;1.02;;;22.00;59.90;;;;;;6231566;28;89036;-69
2022/01/22 13:19:05;;;;;;;1.30;1.20;;;22.00;59.80;;;;;;6212109;28;89091;-70
2022/01/22 13:22:07;;;;;;;1.20;1.10;;;22.00;59.80;;;;;;6231505;28;88354;-68
2022/01/22 13:25:11;;;;;;;1.10;1.00;;;22.00;59.80;;;;;;6230899;28;88220;-70
2022/01/22 13:28:15;;;;;;;1.23;1.13;;;22.00;59.80;;;;;;6231105;28;89114;-69
2022/01/22 13:31:18;;;;;;;1.45;1.15;;;22.10;59.80;;;;;;6230685;28;90044;-69
2022/01/22 13:34:31;;;;;;;1.20;1.10;;;22.10;59.90;;;;;;6216885;28;87977;-70
2022/01/22 13:38:21;;;;;;;1.30;1.20;;;22.00;59.80;;;;;;6217948;28;89575;-69
2022/01/22 13:48:02;;;;;;;1.60;1.50;;;22.10;59.90;;;;;;6219025;28;87085;-69
2022/01/22 13:51:06;;;;;;;1.50;1.40;;;22.00;59.80;;;;;;6206798;28;88977;-69
2022/01/22 13:54:08;;;;;;;1.40;1.30;;;22.10;59.90;;;;;;6218839;28;88006;-69
2022/01/22 13:57:15;;;;;;;1.63;1.52;;;22.10;59.90;;;;;;6224174;28;88088;-69
2022/01/22 14:00:20;;;;;;;1.95;1.85;;;22.10;59.90;;;;;;6231057;28;89053;-69
2022/01/22 14:03:32;;;;;;;2.05;1.90;;;22.10;59.90;;;;;;6220293;28;90215;-69
2022/01/22 14:10:00;;;;;;;1.90;1.80;;;22.10;59.90;;;;;;6232759;28;87290;-69
2022/01/22 14:13:07;;;;;;;2.20;1.98;;;22.10;59.80;;;;;;6233850;28;87964;-69
2022/01/22 14:16:16;;;;;;;2.30;2.10;;;22.10;59.80;;;;;;6233310;28;88050;-70
2022/01/22 14:19:30;;;;;;;2.15;1.95;;;22.10;59.80;;;;;;6233842;28;88944;-70
2022/01/22 14:22:53;;;;;;;2.33;2.13;;;22.10;59.80;;;;;;6227101;28;88085;-69
2022/01/22 14:25:57;;;;;;;2.40;2.20;;;22.10;59.80;;;;;;6231989;28;88372;-70
2022/01/22 14:29:04;;;;;;;2.70;2.50;;;22.10;59.80;;;;;;6219699;28;89396;-69
2022/01/22 14:32:17;;;;;;;2.72;2.50;;;22.10;59.80;;;;;;6233707;28;89075;-69
2022/01/22 14:35:24;;;;;;;2.75;2.50;;;22.10;59.80;;;;;;6233369;28;90365;-70
2022/01/22 14:38:36;;;;;;;3.00;2.70;;;22.10;59.80;;;;;;6231294;28;89463;-70
2022/01/22 14:45:13;;;;;;;3.78;2.70;;;22.10;59.70;;;;;;6229512;28;87215;-71
2022/01/22 14:48:15;;;;;;;3.50;2.63;;;22.20;59.70;;;;;;6233887;28;89156;-72
2022/01/22 14:51:18;;;;;;;4.55;2.85;;;22.20;60.00;;;;;;6224634;28;87902;-70
2022/01/22 14:54:21;;;;;;;2.85;2.60;;;22.20;60.00;;;;;;6230082;28;89056;-70
2022/01/22 14:57:26;;;;;;;4.07;2.97;;;22.20;60.10;;;;;;6220132;28;88407;-71
2022/01/22 15:00:28;;;;;;;3.78;2.75;;;22.20;60.00;;;;;;6221516;28;89416;-71
2022/01/22 15:03:30;;;;;;;4.03;3.03;;;22.30;60.00;;;;;;6219274;28;89099;-70
2022/01/22 15:06:33;;;;;;;5.55;3.40;;;22.20;60.00;;;;;;6215655;28;90410;-70
2022/01/22 15:09:36;;;;;;;4.32;3.03;;;22.30;60.00;;;;;;6226202;28;89045;-69
2022/01/22 15:12:40;;;;;;;3.60;3.30;;;22.30;60.00;;;;;;6219695;28;88286;-70
2022/01/22 15:15:46;;;;;;;3.45;3.15;;;22.30;60.00;;;;;;6233083;28;89380;-70
2022/01/22 15:22:10;;;;;;;3.53;3.17;;;22.20;60.00;;;;;;6229320;28;87128;-71
2022/01/22 15:25:13;;;;;;;4.38;3.05;;;22.20;60.00;;;;;;6232644;28;89095;-71
2022/01/22 15:28:15;;;;;;;3.40;3.10;;;22.30;60.00;;;;;;6231434;28;87434;-70
2022/01/22 15:31:29;;;;;;;3.50;3.20;;;22.30;60.00;;;;;;6231233;28;89358;-70
2022/01/22 15:34:57;;;;;;;3.45;3.15;;;22.30;60.00;;;;;;6232577;28;88820;-70
2022/01/22 15:38:02;;;;;;;3.70;3.40;;;22.30;60.00;;;;;;6228004;28;90161;-70
2022/01/22 15:41:04;;;;;;;3.90;3.30;;;22.30;60.00;;;;;;6222191;28;89135;-71
2022/01/22 15:44:09;;;;;;;3.90;3.50;;;22.30;60.00;;;;;;6231780;28;89428;-71
2022/01/22 15:47:12;;;;;;;3.58;3.22;;;22.30;60.10;;;;;;6218292;28;89349;-71
2022/01/22 15:50:14;;;;;;;3.58;3.28;;;22.30;60.00;;;;;;6233494;28;87933;-70
2022/01/22 15:53:18;;;;;;;3.80;3.30;;;22.30;60.00;;;;;;6218602;28;89327;-70
2022/01/22 15:56:20;;;;;;;3.40;3.10;;;22.30;60.00;;;;;;6218661;28;89140;-70
2022/01/22 15:59:23;;;;;;;3.50;3.20;;;22.40;60.10;;;;;;6219841;28;87255;-70
2022/01/22 16:02:25;;;;;;;3.47;3.17;;;22.30;60.00;;;;;;6231925;28;89055;-71
2022/01/22 16:05:27;;;;;;;3.55;3.25;;;22.30;60.10;;;;;;6231126;28;88962;-73
2022/01/22 16:08:31;;;;;;;3.53;3.22;;;22.30;60.20;;;;;;6219508;28;90076;-69
2022/01/22 16:11:33;;;;;;;5.15;3.47;;;22.40;60.30;;;;;;6217220;28;89094;-70
2022/01/22 16:14:35;;;;;;;4.15;3.22;;;22.40;60.70;;;;;;6223650;28;89108;-71
2022/01/22 16:17:38;;;;;;;3.72;3.35;;;22.40;60.90;;;;;;6209170;28;89049;-69
2022/01/22 16:20:40;;;;;;;3.47;3.17;;;22.40;61.00;;;;;;6229002;28;87967;-70
2022/01/22 16:23:43;;;;;;;4.40;3.28;;;22.40;61.00;;;;;;6231030;28;89059;-69
2022/01/22 16:26:45;;;;;;;4.00;3.50;;;22.40;61.10;;;;;;6231877;28;88241;-69
2022/01/22 16:29:47;;;;;;;4.03;3.30;;;22.40;61.00;;;;;;6231960;28;88342;-69
2022/01/22 16:32:49;;;;;;;4.03;3.63;;;22.40;61.10;;;;;;6230873;28;89083;-70
2022/01/22 16:35:53;;;;;;;3.67;3.25;;;22.40;61.10;;;;;;6232621;28;89028;-70
2022/01/22 16:38:57;;;;;;;3.40;3.05;;;22.40;61.30;;;;;;6229117;28;89966;-69
2022/01/22 16:42:04;;;;;;;3.20;2.90;;;22.40;61.30;;;;;;6230312;28;89554;-69
2022/01/22 16:45:32;;;;;;;3.30;3.00;;;22.40;61.50;;;;;;6226513;28;89356;-68
2022/01/22 16:52:02;;;;;;;3.30;2.92;;;22.40;61.60;;;;;;6231502;28;87299;-69
2022/01/22 16:55:11;;;;;;;4.53;3.33;;;22.40;61.80;;;;;;6224720;28;89107;-70
2022/01/22 16:58:13;;;;;;;4.65;3.03;;;22.40;61.90;;;;;;6219428;28;89168;-70
2022/01/22 17:01:24;;;;;;;3.50;3.20;;;22.40;62.00;;;;;;6223479;28;88548;-70
2022/01/22 17:04:33;;;;;;;3.83;3.42;;;22.40;62.00;;;;;;6231351;28;89662;-70
2022/01/22 17:07:39;;;;;;;3.50;3.20;;;22.40;62.00;;;;;;6230012;28;89073;-69
2022/01/22 17:11:00;;;;;;;4.22;3.42;;;22.40;62.00;;;;;;6216043;28;89260;-69
2022/01/22 17:14:11;;;;;;;3.42;3.13;;;22.40;62.00;;;;;;6230411;28;88173;-69
2022/01/22 17:17:13;;;;;;;3.80;3.50;;;22.40;62.20;;;;;;6216372;28;88035;-70
2022/01/22 17:20:16;;;;;;;4.10;3.70;;;22.40;62.10;;;;;;6232047;28;89219;-70
2022/01/22 17:23:18;;;;;;;4.10;3.80;;;22.40;62.20;;;;;;6230932;28;89328;-70
2022/01/22 17:26:22;;;;;;;4.30;3.70;;;22.40;62.20;;;;;;6230622;28;89066;-69
2022/01/22 17:29:24;;;;;;;3.78;3.47;;;22.40;62.20;;;;;;6232116;28;89085;-69
2022/01/22 17:32:45;;;;;;;3.83;3.42;;;22.40;62.20;;;;;;6227006;28;89575;-70
2022/01/22 17:35:48;;;;;;;3.95;3.63;;;22.40;62.10;;;;;;6227679;28;89373;-70
2022/01/22 17:38:50;;;;;;;3.65;3.35;;;22.40;62.10;;;;;;6229256;28;89107;-70
2022/01/22 17:41:54;;;;;;;3.60;3.30;;;22.40;62.20;;;;;;6220358;28;90716;-69
2022/01/22 17:45:05;;;;;;;4.15;3.63;;;22.40;62.20;;;;;;6235174;28;89502;-69